sensor_id;sensor_type;location;lat;lon;timestamp;P1;durP1;ratioP1;P2;durP2;ratioP2
76765;SDS011;65707;52.362;6.588;2024-03-29T00:02:14;5.18;;;0.80;;
76765;SDS011;65707;52.362;6.588;2024-03-29T00:04:40;3.50;;;0.70;;
76765;SDS011;65707;52.362;6.588;2024-03-29T00:07:06;2.95;;;0.68;;
76765;SDS011;65707;52.362;6.588;2024-03-29T00:09:31;4.68;;;0.80;;
76765;SDS011;65707;52.362;6.588;2024-03-29T00:11:59;7.13;;;0.98;;
76765;SDS011;65707;52.362;6.588;2024-03-29T00:14:24;3.75;;;0.60;;
76765;SDS011;65707;52.362;6.588;2024-03-29T00:16:50;9.73;;;0.88;;
76765;SDS011;65707;52.362;6.588;2024-03-29T00:19:16;4.45;;;0.70;;
76765;SDS011;65707;52.362;6.588;2024-03-29T00:21:42;5.82;;;0.77;;
76765;SDS011;65707;52.362;6.588;2024-03-29T00:24:07;7.43;;;0.90;;
76765;SDS011;65707;52.362;6.588;2024-03-29T00:26:33;5.35;;;1.20;;
76765;SDS011;65707;52.362;6.588;2024-03-29T00:29:00;4.75;;;0.77;;
76765;SDS011;65707;52.362;6.588;2024-03-29T00:31:26;3.90;;;0.70;;
76765;SDS011;65707;52.362;6.588;2024-03-29T00:33:52;5.05;;;1.02;;
76765;SDS011;65707;52.362;6.588;2024-03-29T00:36:18;7.38;;;0.90;;
76765;SDS011;65707;52.362;6.588;2024-03-29T00:38:44;5.28;;;0.90;;
76765;SDS011;65707;52.362;6.588;2024-03-29T00:41:09;5.13;;;0.75;;
76765;SDS011;65707;52.362;6.588;2024-03-29T00:43:35;7.32;;;0.93;;
76765;SDS011;65707;52.362;6.588;2024-03-29T00:46:02;4.38;;;0.88;;
76765;SDS011;65707;52.362;6.588;2024-03-29T00:48:28;8.23;;;1.02;;
76765;SDS011;65707;52.362;6.588;2024-03-29T00:50:54;5.07;;;1.00;;
76765;SDS011;65707;52.362;6.588;2024-03-29T00:53:20;4.03;;;0.90;;
76765;SDS011;65707;52.362;6.588;2024-03-29T00:55:46;6.63;;;0.70;;
76765;SDS011;65707;52.362;6.588;2024-03-29T00:58:11;7.18;;;0.90;;
76765;SDS011;65707;52.362;6.588;2024-03-29T01:00:37;7.50;;;1.00;;
76765;SDS011;65707;52.362;6.588;2024-03-29T01:03:04;5.88;;;0.80;;
76765;SDS011;65707;52.362;6.588;2024-03-29T01:05:30;5.72;;;0.70;;
76765;SDS011;65707;52.362;6.588;2024-03-29T01:07:56;6.70;;;0.80;;
76765;SDS011;65707;52.362;6.588;2024-03-29T01:10:22;3.70;;;0.60;;
76765;SDS011;65707;52.362;6.588;2024-03-29T01:12:48;7.30;;;1.20;;
76765;SDS011;65707;52.362;6.588;2024-03-29T01:15:14;5.13;;;0.80;;
76765;SDS011;65707;52.362;6.588;2024-03-29T01:17:39;4.70;;;0.90;;
76765;SDS011;65707;52.362;6.588;2024-03-29T01:20:07;4.20;;;0.73;;
76765;SDS011;65707;52.362;6.588;2024-03-29T01:22:34;4.18;;;0.63;;
76765;SDS011;65707;52.362;6.588;2024-03-29T01:24:59;5.95;;;0.65;;
76765;SDS011;65707;52.362;6.588;2024-03-29T01:27:25;2.67;;;0.52;;
76765;SDS011;65707;52.362;6.588;2024-03-29T01:29:51;3.85;;;0.55;;
76765;SDS011;65707;52.362;6.588;2024-03-29T01:32:17;4.05;;;0.50;;
76765;SDS011;65707;52.362;6.588;2024-03-29T01:34:43;7.60;;;1.00;;
76765;SDS011;65707;52.362;6.588;2024-03-29T01:37:10;3.90;;;1.00;;
76765;SDS011;65707;52.362;6.588;2024-03-29T01:39:35;3.03;;;0.35;;
76765;SDS011;65707;52.362;6.588;2024-03-29T01:42:01;5.68;;;0.70;;
76765;SDS011;65707;52.362;6.588;2024-03-29T01:44:27;6.20;;;0.82;;
76765;SDS011;65707;52.362;6.588;2024-03-29T01:46:54;4.60;;;0.90;;
76765;SDS011;65707;52.362;6.588;2024-03-29T01:49:21;3.55;;;0.60;;
76765;SDS011;65707;52.362;6.588;2024-03-29T01:51:48;7.18;;;0.80;;
76765;SDS011;65707;52.362;6.588;2024-03-29T01:54:17;6.10;;;0.80;;
76765;SDS011;65707;52.362;6.588;2024-03-29T01:56:44;4.88;;;0.70;;
76765;SDS011;65707;52.362;6.588;2024-03-29T01:59:14;4.50;;;1.15;;
76765;SDS011;65707;52.362;6.588;2024-03-29T02:01:45;7.10;;;1.20;;
76765;SDS011;65707;52.362;6.588;2024-03-29T02:04:13;3.33;;;0.65;;
76765;SDS011;65707;52.362;6.588;2024-03-29T02:06:41;3.30;;;0.60;;
76765;SDS011;65707;52.362;6.588;2024-03-29T02:09:08;7.00;;;0.95;;
76765;SDS011;65707;52.362;6.588;2024-03-29T02:11:36;3.78;;;0.77;;
76765;SDS011;65707;52.362;6.588;2024-03-29T02:14:03;6.43;;;1.13;;
76765;SDS011;65707;52.362;6.588;2024-03-29T02:16:31;6.25;;;0.80;;
76765;SDS011;65707;52.362;6.588;2024-03-29T02:18:58;4.30;;;0.60;;
76765;SDS011;65707;52.362;6.588;2024-03-29T02:21:25;4.65;;;1.10;;
76765;SDS011;65707;52.362;6.588;2024-03-29T02:24:01;4.68;;;0.60;;
76765;SDS011;65707;52.362;6.588;2024-03-29T02:26:32;5.88;;;0.55;;
76765;SDS011;65707;52.362;6.588;2024-03-29T02:29:01;8.35;;;1.00;;
76765;SDS011;65707;52.362;6.588;2024-03-29T02:31:28;6.05;;;0.93;;
76765;SDS011;65707;52.362;6.588;2024-03-29T02:33:55;4.85;;;0.80;;
76765;SDS011;65707;52.362;6.588;2024-03-29T02:36:21;4.68;;;0.57;;
76765;SDS011;65707;52.362;6.588;2024-03-29T02:38:48;4.00;;;0.57;;
76765;SDS011;65707;52.362;6.588;2024-03-29T02:41:16;6.97;;;0.88;;
76765;SDS011;65707;52.362;6.588;2024-03-29T02:43:43;4.03;;;0.88;;
76765;SDS011;65707;52.362;6.588;2024-03-29T02:46:10;3.85;;;0.60;;
76765;SDS011;65707;52.362;6.588;2024-03-29T02:48:36;4.07;;;0.70;;
76765;SDS011;65707;52.362;6.588;2024-03-29T02:51:02;4.85;;;0.60;;
76765;SDS011;65707;52.362;6.588;2024-03-29T02:53:29;6.32;;;0.70;;
76765;SDS011;65707;52.362;6.588;2024-03-29T02:55:55;5.50;;;0.85;;
76765;SDS011;65707;52.362;6.588;2024-03-29T02:58:23;4.57;;;0.80;;
76765;SDS011;65707;52.362;6.588;2024-03-29T03:00:49;5.38;;;0.90;;
76765;SDS011;65707;52.362;6.588;2024-03-29T03:03:15;4.00;;;0.73;;
76765;SDS011;65707;52.362;6.588;2024-03-29T03:05:41;6.57;;;0.80;;
76765;SDS011;65707;52.362;6.588;2024-03-29T03:08:08;8.52;;;1.08;;
76765;SDS011;65707;52.362;6.588;2024-03-29T03:10:52;6.88;;;1.33;;
76765;SDS011;65707;52.362;6.588;2024-03-29T03:13:25;5.78;;;0.93;;
76765;SDS011;65707;52.362;6.588;2024-03-29T03:15:53;5.03;;;0.70;;
76765;SDS011;65707;52.362;6.588;2024-03-29T03:18:21;6.72;;;0.80;;
76765;SDS011;65707;52.362;6.588;2024-03-29T03:20:50;6.20;;;0.90;;
76765;SDS011;65707;52.362;6.588;2024-03-29T03:23:17;5.78;;;0.73;;
76765;SDS011;65707;52.362;6.588;2024-03-29T03:25:43;4.57;;;0.70;;
76765;SDS011;65707;52.362;6.588;2024-03-29T03:28:10;3.90;;;0.63;;
76765;SDS011;65707;52.362;6.588;2024-03-29T03:30:38;4.78;;;0.80;;
76765;SDS011;65707;52.362;6.588;2024-03-29T03:33:06;6.43;;;0.75;;
76765;SDS011;65707;52.362;6.588;2024-03-29T03:35:32;2.55;;;0.52;;
76765;SDS011;65707;52.362;6.588;2024-03-29T03:37:59;4.05;;;0.75;;
76765;SDS011;65707;52.362;6.588;2024-03-29T03:40:24;5.22;;;0.77;;
76765;SDS011;65707;52.362;6.588;2024-03-29T03:42:51;5.68;;;0.80;;
76765;SDS011;65707;52.362;6.588;2024-03-29T03:45:17;3.28;;;0.88;;
76765;SDS011;65707;52.362;6.588;2024-03-29T03:47:45;5.70;;;0.95;;
76765;SDS011;65707;52.362;6.588;2024-03-29T03:50:11;4.05;;;0.70;;
76765;SDS011;65707;52.362;6.588;2024-03-29T03:52:37;6.72;;;1.02;;
76765;SDS011;65707;52.362;6.588;2024-03-29T03:55:03;7.82;;;0.93;;
76765;SDS011;65707;52.362;6.588;2024-03-29T03:57:30;5.25;;;0.80;;
76765;SDS011;65707;52.362;6.588;2024-03-29T03:59:56;5.78;;;0.82;;
76765;SDS011;65707;52.362;6.588;2024-03-29T04:02:22;5.43;;;1.00;;
76765;SDS011;65707;52.362;6.588;2024-03-29T04:04:50;6.97;;;2.10;;
76765;SDS011;65707;52.362;6.588;2024-03-29T04:07:16;5.95;;;1.08;;
76765;SDS011;65707;52.362;6.588;2024-03-29T04:09:42;6.50;;;1.10;;
76765;SDS011;65707;52.362;6.588;2024-03-29T04:12:09;6.35;;;1.02;;
76765;SDS011;65707;52.362;6.588;2024-03-29T04:14:34;4.85;;;1.00;;
76765;SDS011;65707;52.362;6.588;2024-03-29T04:17:01;6.35;;;1.10;;
76765;SDS011;65707;52.362;6.588;2024-03-29T04:19:27;6.18;;;1.20;;
76765;SDS011;65707;52.362;6.588;2024-03-29T04:21:55;7.47;;;1.20;;
76765;SDS011;65707;52.362;6.588;2024-03-29T04:24:22;5.20;;;0.90;;
76765;SDS011;65707;52.362;6.588;2024-03-29T04:26:49;3.75;;;0.70;;
76765;SDS011;65707;52.362;6.588;2024-03-29T04:29:15;4.35;;;0.75;;
76765;SDS011;65707;52.362;6.588;2024-03-29T04:31:44;5.03;;;0.90;;
76765;SDS011;65707;52.362;6.588;2024-03-29T04:34:10;5.88;;;0.82;;
76765;SDS011;65707;52.362;6.588;2024-03-29T04:36:37;3.80;;;0.80;;
76765;SDS011;65707;52.362;6.588;2024-03-29T04:39:05;2.97;;;0.43;;
76765;SDS011;65707;52.362;6.588;2024-03-29T04:41:32;6.53;;;0.70;;
76765;SDS011;65707;52.362;6.588;2024-03-29T04:43:59;5.38;;;0.70;;
76765;SDS011;65707;52.362;6.588;2024-03-29T04:46:26;4.43;;;0.68;;
76765;SDS011;65707;52.362;6.588;2024-03-29T04:48:55;2.85;;;0.50;;
76765;SDS011;65707;52.362;6.588;2024-03-29T04:51:22;4.28;;;0.68;;
76765;SDS011;65707;52.362;6.588;2024-03-29T04:53:49;3.92;;;0.70;;
76765;SDS011;65707;52.362;6.588;2024-03-29T04:56:17;2.88;;;0.47;;
76765;SDS011;65707;52.362;6.588;2024-03-29T04:58:44;3.22;;;0.80;;
76765;SDS011;65707;52.362;6.588;2024-03-29T05:01:11;2.92;;;0.40;;
76765;SDS011;65707;52.362;6.588;2024-03-29T05:03:38;2.63;;;0.40;;
76765;SDS011;65707;52.362;6.588;2024-03-29T05:06:05;2.90;;;0.70;;
76765;SDS011;65707;52.362;6.588;2024-03-29T05:08:32;3.72;;;0.73;;
76765;SDS011;65707;52.362;6.588;2024-03-29T05:10:58;1.90;;;0.30;;
76765;SDS011;65707;52.362;6.588;2024-03-29T05:13:26;3.42;;;0.60;;
76765;SDS011;65707;52.362;6.588;2024-03-29T05:15:54;1.83;;;0.30;;
76765;SDS011;65707;52.362;6.588;2024-03-29T05:18:21;1.52;;;0.50;;
76765;SDS011;65707;52.362;6.588;2024-03-29T05:20:47;3.00;;;0.70;;
76765;SDS011;65707;52.362;6.588;2024-03-29T05:23:16;3.08;;;0.30;;
76765;SDS011;65707;52.362;6.588;2024-03-29T05:25:43;2.28;;;0.60;;
76765;SDS011;65707;52.362;6.588;2024-03-29T05:28:09;4.85;;;1.02;;
76765;SDS011;65707;52.362;6.588;2024-03-29T05:30:37;5.57;;;1.17;;
76765;SDS011;65707;52.362;6.588;2024-03-29T05:33:04;3.95;;;0.50;;
76765;SDS011;65707;52.362;6.588;2024-03-29T05:35:32;4.30;;;0.60;;
76765;SDS011;65707;52.362;6.588;2024-03-29T05:37:59;3.00;;;0.60;;
76765;SDS011;65707;52.362;6.588;2024-03-29T05:40:28;5.63;;;0.90;;
76765;SDS011;65707;52.362;6.588;2024-03-29T05:42:54;4.15;;;1.10;;
76765;SDS011;65707;52.362;6.588;2024-03-29T05:45:24;3.58;;;0.70;;
76765;SDS011;65707;52.362;6.588;2024-03-29T05:47:58;5.28;;;0.90;;
76765;SDS011;65707;52.362;6.588;2024-03-29T05:50:25;3.70;;;0.70;;
76765;SDS011;65707;52.362;6.588;2024-03-29T05:52:52;3.00;;;0.70;;
76765;SDS011;65707;52.362;6.588;2024-03-29T05:55:21;4.88;;;0.70;;
76765;SDS011;65707;52.362;6.588;2024-03-29T05:57:48;5.55;;;0.80;;
76765;SDS011;65707;52.362;6.588;2024-03-29T06:00:15;4.65;;;0.68;;
76765;SDS011;65707;52.362;6.588;2024-03-29T06:02:42;3.95;;;0.70;;
76765;SDS011;65707;52.362;6.588;2024-03-29T06:05:12;4.43;;;0.93;;
76765;SDS011;65707;52.362;6.588;2024-03-29T06:07:38;4.28;;;0.93;;
76765;SDS011;65707;52.362;6.588;2024-03-29T06:10:05;5.75;;;1.08;;
76765;SDS011;65707;52.362;6.588;2024-03-29T06:12:33;7.35;;;1.00;;
76765;SDS011;65707;52.362;6.588;2024-03-29T06:15:00;4.50;;;0.80;;
76765;SDS011;65707;52.362;6.588;2024-03-29T06:17:45;4.75;;;0.80;;
76765;SDS011;65707;52.362;6.588;2024-03-29T06:20:13;4.95;;;0.73;;
76765;SDS011;65707;52.362;6.588;2024-03-29T06:22:40;4.82;;;0.80;;
76765;SDS011;65707;52.362;6.588;2024-03-29T06:25:07;5.15;;;0.80;;
76765;SDS011;65707;52.362;6.588;2024-03-29T06:27:35;3.47;;;0.70;;
76765;SDS011;65707;52.362;6.588;2024-03-29T06:30:03;4.78;;;0.70;;
76765;SDS011;65707;52.362;6.588;2024-03-29T06:32:32;5.40;;;0.77;;
76765;SDS011;65707;52.362;6.588;2024-03-29T06:34:58;5.72;;;0.75;;
76765;SDS011;65707;52.362;6.588;2024-03-29T06:37:26;5.38;;;1.13;;
76765;SDS011;65707;52.362;6.588;2024-03-29T06:39:54;3.53;;;0.85;;
76765;SDS011;65707;52.362;6.588;2024-03-29T06:42:21;3.13;;;0.70;;
76765;SDS011;65707;52.362;6.588;2024-03-29T06:44:49;4.55;;;0.80;;
76765;SDS011;65707;52.362;6.588;2024-03-29T06:47:17;6.78;;;1.13;;
76765;SDS011;65707;52.362;6.588;2024-03-29T06:49:43;5.60;;;1.00;;
76765;SDS011;65707;52.362;6.588;2024-03-29T06:52:10;8.70;;;1.00;;
76765;SDS011;65707;52.362;6.588;2024-03-29T06:54:38;6.78;;;1.13;;
76765;SDS011;65707;52.362;6.588;2024-03-29T06:57:05;9.65;;;1.20;;
76765;SDS011;65707;52.362;6.588;2024-03-29T06:59:34;4.88;;;1.20;;
76765;SDS011;65707;52.362;6.588;2024-03-29T07:02:00;4.97;;;1.00;;
76765;SDS011;65707;52.362;6.588;2024-03-29T07:04:27;6.85;;;1.40;;
76765;SDS011;65707;52.362;6.588;2024-03-29T07:06:54;4.57;;;0.90;;
76765;SDS011;65707;52.362;6.588;2024-03-29T07:09:22;4.68;;;1.13;;
76765;SDS011;65707;52.362;6.588;2024-03-29T07:11:51;6.68;;;1.10;;
76765;SDS011;65707;52.362;6.588;2024-03-29T07:14:19;5.00;;;1.13;;
76765;SDS011;65707;52.362;6.588;2024-03-29T07:16:48;7.07;;;1.20;;
76765;SDS011;65707;52.362;6.588;2024-03-29T07:19:15;6.82;;;1.60;;
76765;SDS011;65707;52.362;6.588;2024-03-29T07:21:42;5.63;;;1.42;;
76765;SDS011;65707;52.362;6.588;2024-03-29T07:24:09;8.55;;;1.35;;
76765;SDS011;65707;52.362;6.588;2024-03-29T07:26:36;8.68;;;1.33;;
76765;SDS011;65707;52.362;6.588;2024-03-29T07:29:04;6.68;;;1.30;;
76765;SDS011;65707;52.362;6.588;2024-03-29T07:31:31;6.63;;;1.20;;
76765;SDS011;65707;52.362;6.588;2024-03-29T07:33:58;7.32;;;1.40;;
76765;SDS011;65707;52.362;6.588;2024-03-29T07:36:25;5.43;;;1.17;;
76765;SDS011;65707;52.362;6.588;2024-03-29T07:38:56;8.00;;;1.67;;
76765;SDS011;65707;52.362;6.588;2024-03-29T07:41:24;6.90;;;1.45;;
76765;SDS011;65707;52.362;6.588;2024-03-29T07:43:51;6.00;;;1.35;;
76765;SDS011;65707;52.362;6.588;2024-03-29T07:46:23;6.28;;;1.30;;
76765;SDS011;65707;52.362;6.588;2024-03-29T07:48:49;8.48;;;1.65;;
76765;SDS011;65707;52.362;6.588;2024-03-29T07:51:16;10.98;;;1.73;;
76765;SDS011;65707;52.362;6.588;2024-03-29T07:53:43;5.72;;;1.23;;
76765;SDS011;65707;52.362;6.588;2024-03-29T07:56:10;8.85;;;1.40;;
76765;SDS011;65707;52.362;6.588;2024-03-29T07:58:36;7.97;;;1.30;;
76765;SDS011;65707;52.362;6.588;2024-03-29T08:01:03;6.82;;;1.15;;
76765;SDS011;65707;52.362;6.588;2024-03-29T08:03:32;5.43;;;1.35;;
76765;SDS011;65707;52.362;6.588;2024-03-29T08:05:59;5.28;;;1.15;;
76765;SDS011;65707;52.362;6.588;2024-03-29T08:08:29;5.63;;;1.20;;
76765;SDS011;65707;52.362;6.588;2024-03-29T08:10:56;6.47;;;1.40;;
76765;SDS011;65707;52.362;6.588;2024-03-29T08:13:23;7.95;;;1.50;;
76765;SDS011;65707;52.362;6.588;2024-03-29T08:15:55;6.47;;;1.30;;
76765;SDS011;65707;52.362;6.588;2024-03-29T08:18:24;11.05;;;1.60;;
76765;SDS011;65707;52.362;6.588;2024-03-29T08:20:52;8.52;;;1.50;;
76765;SDS011;65707;52.362;6.588;2024-03-29T08:23:20;5.68;;;1.30;;
76765;SDS011;65707;52.362;6.588;2024-03-29T08:25:46;6.03;;;1.40;;
76765;SDS011;65707;52.362;6.588;2024-03-29T08:28:13;8.50;;;2.05;;
76765;SDS011;65707;52.362;6.588;2024-03-29T08:30:40;6.65;;;1.38;;
76765;SDS011;65707;52.362;6.588;2024-03-29T08:33:07;7.65;;;2.00;;
76765;SDS011;65707;52.362;6.588;2024-03-29T08:35:34;6.78;;;2.20;;
76765;SDS011;65707;52.362;6.588;2024-03-29T08:38:03;7.35;;;1.70;;
76765;SDS011;65707;52.362;6.588;2024-03-29T08:40:30;12.40;;;3.10;;
76765;SDS011;65707;52.362;6.588;2024-03-29T08:42:59;8.15;;;1.88;;
76765;SDS011;65707;52.362;6.588;2024-03-29T08:45:27;9.23;;;1.73;;
76765;SDS011;65707;52.362;6.588;2024-03-29T08:47:54;7.15;;;2.10;;
76765;SDS011;65707;52.362;6.588;2024-03-29T08:50:20;5.75;;;1.92;;
76765;SDS011;65707;52.362;6.588;2024-03-29T08:52:47;9.73;;;2.17;;
76765;SDS011;65707;52.362;6.588;2024-03-29T08:55:15;8.77;;;2.05;;
76765;SDS011;65707;52.362;6.588;2024-03-29T08:57:42;8.68;;;1.92;;
76765;SDS011;65707;52.362;6.588;2024-03-29T09:00:09;7.68;;;1.63;;
76765;SDS011;65707;52.362;6.588;2024-03-29T09:02:37;5.50;;;1.60;;
76765;SDS011;65707;52.362;6.588;2024-03-29T09:05:04;6.95;;;1.50;;
76765;SDS011;65707;52.362;6.588;2024-03-29T09:07:32;6.75;;;1.90;;
76765;SDS011;65707;52.362;6.588;2024-03-29T09:09:59;10.13;;;1.90;;
76765;SDS011;65707;52.362;6.588;2024-03-29T09:12:27;5.32;;;1.30;;
76765;SDS011;65707;52.362;6.588;2024-03-29T09:14:53;7.40;;;2.25;;
76765;SDS011;65707;52.362;6.588;2024-03-29T09:17:20;8.20;;;1.73;;
76765;SDS011;65707;52.362;6.588;2024-03-29T09:19:49;6.53;;;1.50;;
76765;SDS011;65707;52.362;6.588;2024-03-29T09:22:16;6.07;;;1.63;;
76765;SDS011;65707;52.362;6.588;2024-03-29T09:24:43;7.85;;;1.85;;
76765;SDS011;65707;52.362;6.588;2024-03-29T09:27:10;9.70;;;1.70;;
76765;SDS011;65707;52.362;6.588;2024-03-29T09:29:38;6.97;;;1.55;;
76765;SDS011;65707;52.362;6.588;2024-03-29T09:32:05;6.10;;;1.48;;
76765;SDS011;65707;52.362;6.588;2024-03-29T09:34:33;6.20;;;1.27;;
76765;SDS011;65707;52.362;6.588;2024-03-29T09:36:59;6.10;;;1.30;;
76765;SDS011;65707;52.362;6.588;2024-03-29T09:39:27;6.53;;;1.70;;
76765;SDS011;65707;52.362;6.588;2024-03-29T09:41:54;6.32;;;1.42;;
76765;SDS011;65707;52.362;6.588;2024-03-29T09:44:28;6.47;;;1.60;;
76765;SDS011;65707;52.362;6.588;2024-03-29T09:47:02;6.45;;;1.60;;
76765;SDS011;65707;52.362;6.588;2024-03-29T09:49:31;7.28;;;1.40;;
76765;SDS011;65707;52.362;6.588;2024-03-29T09:51:59;5.90;;;1.33;;
76765;SDS011;65707;52.362;6.588;2024-03-29T09:54:27;7.35;;;1.50;;
76765;SDS011;65707;52.362;6.588;2024-03-29T09:56:55;5.03;;;1.08;;
76765;SDS011;65707;52.362;6.588;2024-03-29T09:59:23;5.10;;;1.40;;
76765;SDS011;65707;52.362;6.588;2024-03-29T10:01:51;4.60;;;1.20;;
76765;SDS011;65707;52.362;6.588;2024-03-29T10:04:23;6.82;;;1.45;;
76765;SDS011;65707;52.362;6.588;2024-03-29T10:06:51;5.50;;;1.65;;
76765;SDS011;65707;52.362;6.588;2024-03-29T10:09:18;5.82;;;1.40;;
76765;SDS011;65707;52.362;6.588;2024-03-29T10:11:46;4.63;;;1.50;;
76765;SDS011;65707;52.362;6.588;2024-03-29T10:14:14;6.05;;;1.30;;
76765;SDS011;65707;52.362;6.588;2024-03-29T10:16:42;6.18;;;1.63;;
76765;SDS011;65707;52.362;6.588;2024-03-29T10:19:08;5.35;;;1.58;;
76765;SDS011;65707;52.362;6.588;2024-03-29T10:21:39;5.15;;;1.73;;
76765;SDS011;65707;52.362;6.588;2024-03-29T10:24:12;8.52;;;1.80;;
76765;SDS011;65707;52.362;6.588;2024-03-29T10:26:40;5.03;;;1.60;;
76765;SDS011;65707;52.362;6.588;2024-03-29T10:29:07;8.18;;;2.13;;
76765;SDS011;65707;52.362;6.588;2024-03-29T10:31:34;6.97;;;1.58;;
76765;SDS011;65707;52.362;6.588;2024-03-29T10:34:02;5.50;;;1.67;;
76765;SDS011;65707;52.362;6.588;2024-03-29T10:36:30;8.57;;;2.20;;
76765;SDS011;65707;52.362;6.588;2024-03-29T10:39:02;6.40;;;2.10;;
76765;SDS011;65707;52.362;6.588;2024-03-29T10:41:36;5.95;;;1.98;;
76765;SDS011;65707;52.362;6.588;2024-03-29T10:44:07;5.40;;;2.13;;
76765;SDS011;65707;52.362;6.588;2024-03-29T10:46:36;6.53;;;2.40;;
76765;SDS011;65707;52.362;6.588;2024-03-29T10:49:04;8.15;;;2.47;;
76765;SDS011;65707;52.362;6.588;2024-03-29T10:51:34;6.85;;;2.25;;
76765;SDS011;65707;52.362;6.588;2024-03-29T10:54:06;7.10;;;2.33;;
76765;SDS011;65707;52.362;6.588;2024-03-29T10:56:36;5.95;;;2.05;;
76765;SDS011;65707;52.362;6.588;2024-03-29T10:59:06;7.72;;;2.38;;
76765;SDS011;65707;52.362;6.588;2024-03-29T11:01:44;6.38;;;2.08;;
76765;SDS011;65707;52.362;6.588;2024-03-29T11:04:19;5.85;;;2.20;;
76765;SDS011;65707;52.362;6.588;2024-03-29T11:06:52;9.80;;;2.58;;
76765;SDS011;65707;52.362;6.588;2024-03-29T11:09:26;5.82;;;2.13;;
76765;SDS011;65707;52.362;6.588;2024-03-29T11:11:57;5.88;;;2.13;;
76765;SDS011;65707;52.362;6.588;2024-03-29T11:14:29;6.70;;;2.72;;
76765;SDS011;65707;52.362;6.588;2024-03-29T11:17:06;6.45;;;1.80;;
76765;SDS011;65707;52.362;6.588;2024-03-29T11:19:34;8.73;;;2.50;;
76765;SDS011;65707;52.362;6.588;2024-03-29T11:22:02;5.10;;;1.77;;
76765;SDS011;65707;52.362;6.588;2024-03-29T11:24:32;5.85;;;2.05;;
76765;SDS011;65707;52.362;6.588;2024-03-29T11:27:06;6.32;;;2.03;;
76765;SDS011;65707;52.362;6.588;2024-03-29T11:29:36;5.65;;;1.90;;
76765;SDS011;65707;52.362;6.588;2024-03-29T11:32:11;6.22;;;2.00;;
76765;SDS011;65707;52.362;6.588;2024-03-29T11:34:43;5.60;;;1.65;;
76765;SDS011;65707;52.362;6.588;2024-03-29T11:37:11;7.55;;;1.50;;
76765;SDS011;65707;52.362;6.588;2024-03-29T11:39:40;5.45;;;1.50;;
76765;SDS011;65707;52.362;6.588;2024-03-29T11:42:13;7.07;;;1.50;;
76765;SDS011;65707;52.362;6.588;2024-03-29T11:44:40;7.53;;;1.95;;
76765;SDS011;65707;52.362;6.588;2024-03-29T11:47:06;4.30;;;1.50;;
76765;SDS011;65707;52.362;6.588;2024-03-29T11:49:36;3.95;;;1.20;;
76765;SDS011;65707;52.362;6.588;2024-03-29T11:52:04;7.50;;;1.30;;
76765;SDS011;65707;52.362;6.588;2024-03-29T11:54:38;5.30;;;1.42;;
76765;SDS011;65707;52.362;6.588;2024-03-29T11:57:06;7.18;;;1.27;;
76765;SDS011;65707;52.362;6.588;2024-03-29T11:59:33;5.53;;;1.55;;
76765;SDS011;65707;52.362;6.588;2024-03-29T12:01:59;4.53;;;1.25;;
76765;SDS011;65707;52.362;6.588;2024-03-29T12:04:28;4.93;;;1.10;;
76765;SDS011;65707;52.362;6.588;2024-03-29T12:06:54;6.82;;;1.30;;
76765;SDS011;65707;52.362;6.588;2024-03-29T12:09:21;5.90;;;1.23;;
76765;SDS011;65707;52.362;6.588;2024-03-29T12:11:49;4.85;;;1.15;;
76765;SDS011;65707;52.362;6.588;2024-03-29T12:14:16;4.90;;;1.20;;
76765;SDS011;65707;52.362;6.588;2024-03-29T12:16:43;6.18;;;1.35;;
76765;SDS011;65707;52.362;6.588;2024-03-29T12:19:21;4.88;;;1.20;;
76765;SDS011;65707;52.362;6.588;2024-03-29T12:21:49;5.63;;;1.17;;
76765;SDS011;65707;52.362;6.588;2024-03-29T12:24:17;3.75;;;1.00;;
76765;SDS011;65707;52.362;6.588;2024-03-29T12:26:44;4.25;;;1.20;;
76765;SDS011;65707;52.362;6.588;2024-03-29T12:29:12;4.18;;;1.35;;
76765;SDS011;65707;52.362;6.588;2024-03-29T12:31:40;3.83;;;1.02;;
76765;SDS011;65707;52.362;6.588;2024-03-29T12:34:07;3.47;;;1.00;;
76765;SDS011;65707;52.362;6.588;2024-03-29T12:36:33;5.70;;;1.30;;
76765;SDS011;65707;52.362;6.588;2024-03-29T12:39:00;6.38;;;1.35;;
76765;SDS011;65707;52.362;6.588;2024-03-29T12:41:28;4.18;;;1.10;;
76765;SDS011;65707;52.362;6.588;2024-03-29T12:43:55;4.25;;;0.93;;
76765;SDS011;65707;52.362;6.588;2024-03-29T12:46:23;3.90;;;1.17;;
76765;SDS011;65707;52.362;6.588;2024-03-29T12:51:24;4.18;;;1.10;;
76765;SDS011;65707;52.362;6.588;2024-03-29T12:53:50;4.65;;;1.10;;
76765;SDS011;65707;52.362;6.588;2024-03-29T12:56:17;4.25;;;1.30;;
76765;SDS011;65707;52.362;6.588;2024-03-29T12:58:44;5.30;;;1.15;;
76765;SDS011;65707;52.362;6.588;2024-03-29T13:01:10;4.28;;;0.98;;
76765;SDS011;65707;52.362;6.588;2024-03-29T13:03:39;5.85;;;1.20;;
76765;SDS011;65707;52.362;6.588;2024-03-29T13:06:08;4.38;;;1.42;;
76765;SDS011;65707;52.362;6.588;2024-03-29T13:08:35;4.30;;;1.20;;
76765;SDS011;65707;52.362;6.588;2024-03-29T13:11:03;5.85;;;1.20;;
76765;SDS011;65707;52.362;6.588;2024-03-29T13:13:30;3.85;;;1.08;;
76765;SDS011;65707;52.362;6.588;2024-03-29T13:15:57;5.75;;;1.20;;
76765;SDS011;65707;52.362;6.588;2024-03-29T13:18:24;4.07;;;1.10;;
76765;SDS011;65707;52.362;6.588;2024-03-29T13:20:54;4.95;;;1.00;;
76765;SDS011;65707;52.362;6.588;2024-03-29T13:23:21;5.50;;;0.90;;
76765;SDS011;65707;52.362;6.588;2024-03-29T13:25:48;4.50;;;1.10;;
76765;SDS011;65707;52.362;6.588;2024-03-29T13:28:16;3.72;;;1.05;;
76765;SDS011;65707;52.362;6.588;2024-03-29T13:30:42;4.15;;;1.10;;
76765;SDS011;65707;52.362;6.588;2024-03-29T13:33:10;3.78;;;0.93;;
76765;SDS011;65707;52.362;6.588;2024-03-29T13:35:37;4.05;;;0.90;;
76765;SDS011;65707;52.362;6.588;2024-03-29T13:38:06;3.33;;;0.90;;
76765;SDS011;65707;52.362;6.588;2024-03-29T13:40:33;3.63;;;1.33;;
76765;SDS011;65707;52.362;6.588;2024-03-29T13:43:00;4.63;;;1.23;;
76765;SDS011;65707;52.362;6.588;2024-03-29T13:45:26;3.70;;;0.80;;
76765;SDS011;65707;52.362;6.588;2024-03-29T13:47:53;3.22;;;0.80;;
76765;SDS011;65707;52.362;6.588;2024-03-29T13:50:20;5.63;;;1.15;;
76765;SDS011;65707;52.362;6.588;2024-03-29T13:52:47;4.35;;;0.98;;
76765;SDS011;65707;52.362;6.588;2024-03-29T13:55:16;4.40;;;0.80;;
76765;SDS011;65707;52.362;6.588;2024-03-29T13:57:43;3.20;;;0.75;;
76765;SDS011;65707;52.362;6.588;2024-03-29T14:00:10;3.78;;;0.73;;
76765;SDS011;65707;52.362;6.588;2024-03-29T14:02:39;3.80;;;0.90;;
76765;SDS011;65707;52.362;6.588;2024-03-29T14:05:06;3.30;;;0.98;;
76765;SDS011;65707;52.362;6.588;2024-03-29T14:07:33;3.70;;;1.10;;
76765;SDS011;65707;52.362;6.588;2024-03-29T14:10:00;4.28;;;0.75;;
76765;SDS011;65707;52.362;6.588;2024-03-29T14:12:30;4.05;;;0.90;;
76765;SDS011;65707;52.362;6.588;2024-03-29T14:14:57;4.20;;;0.70;;
76765;SDS011;65707;52.362;6.588;2024-03-29T14:17:25;3.08;;;0.80;;
76765;SDS011;65707;52.362;6.588;2024-03-29T14:19:53;3.70;;;1.00;;
76765;SDS011;65707;52.362;6.588;2024-03-29T14:22:20;3.65;;;0.73;;
76765;SDS011;65707;52.362;6.588;2024-03-29T14:24:48;5.07;;;1.00;;
76765;SDS011;65707;52.362;6.588;2024-03-29T14:27:15;3.08;;;0.80;;
76765;SDS011;65707;52.362;6.588;2024-03-29T14:29:43;2.92;;;0.65;;
76765;SDS011;65707;52.362;6.588;2024-03-29T14:34:37;2.22;;;0.60;;
76765;SDS011;65707;52.362;6.588;2024-03-29T14:37:09;2.97;;;0.80;;
76765;SDS011;65707;52.362;6.588;2024-03-29T14:39:38;4.15;;;1.00;;
76765;SDS011;65707;52.362;6.588;2024-03-29T14:42:07;3.42;;;0.80;;
76765;SDS011;65707;52.362;6.588;2024-03-29T14:44:36;3.15;;;0.80;;
76765;SDS011;65707;52.362;6.588;2024-03-29T14:47:04;2.78;;;0.77;;
76765;SDS011;65707;52.362;6.588;2024-03-29T14:49:32;2.47;;;0.60;;
76765;SDS011;65707;52.362;6.588;2024-03-29T14:51:59;3.55;;;0.73;;
76765;SDS011;65707;52.362;6.588;2024-03-29T14:54:25;2.70;;;0.70;;
76765;SDS011;65707;52.362;6.588;2024-03-29T14:56:52;4.05;;;0.70;;